Terminal Aerodrome Forecast
Issued by NWS Buffalo, NY

Home | Current Version | Previous Version | Text Only | Print | Product List | Glossary On
Versions: 1 2 3 4 5 6 7 8 9 10 11 12 13 14 15 16 17 18 19 20 21 22 23 24 25 26 27
000
FTUS41 KBUF 181100
TAFART
TAF
KART 181129Z 1812/1912 28011KT P6SM -SN OVC015
     FM181700 29008KT P6SM OVC015
     FM182200 30007KT P6SM OVC020
     FM190100 32006KT P6SM OVC025
     FM190900 34005KT P6SM OVC020
     FM191100 35006KT P6SM OVC100=

USA.gov is the U.S. government's official web portal to all federal, state and local government web resources and services.